Time;durP1;ratioP1;P1;durP2;ratioP2;P2;SDS_P1;SDS_P2;PMS_P1;PMS_P2;Temp;Humidity;BMP_temperature;BMP_pressure;BME280_temperature;BME280_humidity;BME280_pressure;Samples;Min_cycle;Max_cycle;Signal;HPM_P1;HPM_P2
2021/10/24 00:00:16;;;;;;;58.50;21.97;;;;;;;3.92;77.79;100720.69;1772090;81;21299;-76
2021/10/24 00:03:21;;;;;;;49.42;22.13;;;;;;;3.83;77.54;100723.63;1771195;79;21291;-76
2021/10/24 00:06:26;;;;;;;68.95;24.10;;;;;;;3.71;77.04;100725.95;1780039;80;21216;-79
2021/10/24 00:09:31;;;;;;;62.43;24.92;;;;;;;3.58;76.78;100721.17;1785937;80;21188;-79
2021/10/24 00:12:36;;;;;;;63.20;25.68;;;;;;;3.47;76.84;100725.20;1785870;79;21181;-76
2021/10/24 00:15:41;;;;;;;69.87;28.27;;;;;;;3.35;77.35;100727.53;1785975;80;21256;-77
2021/10/24 00:18:47;;;;;;;61.50;24.63;;;;;;;3.24;77.84;100722.44;1785913;79;21758;-79
2021/10/24 00:21:52;;;;;;;54.58;25.20;;;;;;;3.16;78.19;100730.31;1785631;79;21165;-77
2021/10/24 00:24:57;;;;;;;54.08;22.90;;;;;;;3.07;78.80;100729.67;1785971;80;21842;-79
2021/10/24 00:28:03;;;;;;;56.35;22.77;;;;;;;3.01;79.34;100731.47;1785754;79;21192;-77
2021/10/24 00:31:09;;;;;;;50.03;20.62;;;;;;;2.97;79.59;100730.01;1785383;80;21265;-78
2021/10/24 00:34:14;;;;;;;48.63;22.00;;;;;;;2.96;79.84;100732.31;1785993;80;21687;-79
2021/10/24 00:37:19;;;;;;;48.98;21.75;;;;;;;2.95;80.02;100733.30;1785736;79;21200;-79
2021/10/24 00:40:24;;;;;;;45.92;20.95;;;;;;;2.96;80.06;100737.22;1785935;80;21157;-76
2021/10/24 00:43:30;;;;;;;45.45;21.30;;;;;;;2.93;79.87;100737.97;1785875;79;21327;-76
2021/10/24 00:46:36;;;;;;;53.85;21.93;;;;;;;2.89;79.84;100732.42;1785871;80;21215;-79
2021/10/24 00:49:41;;;;;;;50.75;22.70;;;;;;;2.85;80.07;100726.88;1785914;80;21160;-77
2021/10/24 00:52:48;;;;;;;47.40;21.25;;;;;;;2.83;80.37;100724.30;1784307;79;21180;-79
2021/10/24 00:55:54;;;;;;;50.55;22.27;;;;;;;2.82;80.52;100723.91;1771129;80;21124;-76
2021/10/24 00:58:59;;;;;;;55.75;22.27;;;;;;;2.80;80.69;100721.33;1785914;79;21711;-79
2021/10/24 01:02:05;;;;;;;66.67;23.60;;;;;;;2.80;80.84;100725.88;1785855;79;21184;-79
2021/10/24 01:05:12;;;;;;;49.13;22.62;;;;;;;2.78;80.97;100730.55;1785896;80;21256;-79
2021/10/24 01:08:17;;;;;;;52.10;22.05;;;;;;;2.78;81.04;100730.05;1772409;79;21264;-76
2021/10/24 01:11:22;;;;;;;54.63;22.48;;;;;;;2.78;81.14;100728.70;1772301;81;21782;-79
2021/10/24 01:14:26;;;;;;;49.03;21.42;;;;;;;2.80;81.27;100730.78;1772212;81;21334;-77
2021/10/24 01:17:31;;;;;;;50.00;21.62;;;;;;;2.81;81.36;100728.45;1771601;79;21291;-77
2021/10/24 01:20:37;;;;;;;48.05;23.15;;;;;;;2.84;81.21;100727.86;1772103;81;21252;-76
2021/10/24 01:23:43;;;;;;;48.52;20.45;;;;;;;2.80;80.99;100725.38;1772002;79;21330;-79
2021/10/24 01:26:48;;;;;;;46.92;19.92;;;;;;;2.79;80.91;100737.17;1772109;79;21312;-76
2021/10/24 01:29:53;;;;;;;47.17;18.65;;;;;;;2.78;80.85;100741.35;1772178;81;21810;-79
2021/10/24 01:33:02;;;;;;;39.42;19.87;;;;;;;2.75;80.86;100743.78;1772106;79;21331;-76
2021/10/24 01:36:10;;;;;;;43.30;19.40;;;;;;;2.75;80.87;100745.13;1772045;81;21719;-79
2021/10/24 01:39:15;;;;;;;50.23;20.15;;;;;;;2.73;80.65;100739.00;1771980;81;21703;-79
2021/10/24 01:42:19;;;;;;;39.55;20.08;;;;;;;2.72;80.55;100748.05;1771993;79;21790;-79
2021/10/24 01:45:24;;;;;;;43.55;19.95;;;;;;;2.70;80.41;100745.11;1772135;81;21107;-79
2021/10/24 01:48:31;;;;;;;47.45;19.42;;;;;;;2.66;80.25;100744.47;1772097;79;21217;-77
2021/10/24 01:51:37;;;;;;;47.78;19.05;;;;;;;2.63;80.12;100753.28;1772095;79;21762;-76
2021/10/24 01:54:42;;;;;;;41.58;18.12;;;;;;;2.56;79.86;100755.10;1772220;81;21180;-79
2021/10/24 01:57:50;;;;;;;43.52;18.37;;;;;;;2.45;79.97;100755.05;1771600;79;21200;-79
2021/10/24 02:00:57;;;;;;;56.18;19.85;;;;;;;2.37;79.87;100752.53;1772242;81;21273;-79
2021/10/24 02:04:22;;;;;;;39.75;18.40;;;;;;;2.29;79.93;100755.30;1772363;81;21260;-76
2021/10/24 02:07:30;;;;;;;40.92;18.30;;;;;;;2.23;79.98;100756.25;1770826;79;21279;-79
2021/10/24 02:10:37;;;;;;;45.88;20.02;;;;;;;2.14;79.65;100749.67;1772299;81;21307;-76
2021/10/24 02:13:46;;;;;;;37.80;19.37;;;;;;;2.09;79.97;100751.84;1772176;79;21335;-79
2021/10/24 02:16:52;;;;;;;37.73;20.27;;;;;;;2.11;80.03;100755.78;1772360;79;21292;-77
2021/10/24 02:19:58;;;;;;;57.75;19.90;;;;;;;2.10;79.79;100751.36;1772244;81;21799;-79
2021/10/24 02:23:04;;;;;;;50.15;19.65;;;;;;;2.13;80.32;100745.27;1772128;79;21810;-78
2021/10/24 02:26:11;;;;;;;48.10;20.65;;;;;;;2.19;80.83;100758.79;1772212;81;21276;-79
2021/10/24 02:29:16;;;;;;;46.60;22.05;;;;;;;2.23;81.06;100754.90;1772135;81;21158;-79
2021/10/24 02:32:21;;;;;;;40.12;20.77;;;;;;;2.25;81.13;100752.94;1772225;79;21291;-77
2021/10/24 02:35:28;;;;;;;42.67;18.80;;;;;;;2.27;81.17;100760.45;1772319;81;21150;-76
2021/10/24 02:38:33;;;;;;;40.48;18.95;;;;;;;2.26;81.04;100759.59;1771826;79;21320;-79
2021/10/24 02:41:38;;;;;;;41.45;18.45;;;;;;;2.24;80.87;100757.47;1772184;79;21257;-79
2021/10/24 02:44:45;;;;;;;37.65;18.27;;;;;;;2.21;80.67;100762.22;1772270;81;21327;-76
2021/10/24 02:47:51;;;;;;;41.18;17.30;;;;;;;2.15;80.63;100756.80;1771672;79;21295;-76
2021/10/24 02:50:58;;;;;;;42.05;18.70;;;;;;;2.14;80.62;100759.61;1772185;81;21146;-79
2021/10/24 02:54:03;;;;;;;37.00;18.00;;;;;;;2.11;80.54;100763.38;1771922;81;21719;-79
2021/10/24 02:57:09;;;;;;;47.00;18.32;;;;;;;2.09;80.45;100759.95;1772030;79;21323;-79
2021/10/24 03:00:15;;;;;;;43.58;18.30;;;;;;;2.05;80.32;100767.39;1772127;81;21826;-76
2021/10/24 03:03:20;;;;;;;41.50;15.75;;;;;;;2.02;80.07;100764.05;1772168;79;21324;-77
2021/10/24 03:06:26;;;;;;;37.13;16.05;;;;;;;1.95;79.95;100765.48;1772227;81;21818;-79
2021/10/24 03:09:31;;;;;;;36.75;14.63;;;;;;;1.91;79.98;100754.03;1771336;80;21146;-76
2021/10/24 03:12:36;;;;;;;32.50;15.60;;;;;;;1.89;80.03;100756.48;1772197;79;21746;-76
2021/10/24 03:15:41;;;;;;;35.05;13.80;;;;;;;1.89;80.05;100755.99;1772206;81;21134;-78
2021/10/24 03:18:47;;;;;;;29.70;14.55;;;;;;;1.89;80.04;100757.83;1772150;79;21284;-79
2021/10/24 03:21:52;;;;;;;34.23;14.70;;;;;;;1.87;79.95;100753.88;1772270;79;21150;-77
2021/10/24 03:24:58;;;;;;;33.28;14.25;;;;;;;1.86;79.88;100762.09;1772148;81;21173;-80
2021/10/24 03:28:03;;;;;;;30.65;12.82;;;;;;;1.84;79.81;100759.51;1772213;79;21853;-78
2021/10/24 03:31:09;;;;;;;41.77;13.75;;;;;;;1.83;79.82;100757.76;1772071;81;21264;-79
2021/10/24 03:34:14;;;;;;;43.55;15.32;;;;;;;1.84;79.85;100762.70;1772230;81;21299;-76
2021/10/24 03:37:18;;;;;;;27.42;14.13;;;;;;;1.86;80.02;100764.78;1772187;79;21312;-79
2021/10/24 03:40:23;;;;;;;35.17;14.03;;;;;;;1.91;80.06;100765.31;1772179;81;21272;-79
2021/10/24 03:43:29;;;;;;;29.05;13.25;;;;;;;1.92;79.95;100764.34;1772145;79;21182;-79
2021/10/24 03:46:36;;;;;;;33.30;12.90;;;;;;;1.93;79.75;100764.70;1772183;81;21260;-77
2021/10/24 03:49:42;;;;;;;29.80;12.98;;;;;;;1.90;79.44;100756.36;1771502;81;21877;-79
2021/10/24 03:52:47;;;;;;;35.70;13.15;;;;;;;1.86;79.27;100765.64;1771452;79;21319;-80
2021/10/24 03:55:51;;;;;;;47.15;14.18;;;;;;;1.81;79.26;100766.95;1772010;81;21137;-76
2021/10/24 03:58:58;;;;;;;25.30;12.88;;;;;;;1.76;79.26;100773.53;1770707;79;21316;-79
2021/10/24 04:02:04;;;;;;;32.00;13.00;;;;;;;1.73;79.33;100771.53;1770591;79;21343;-79
2021/10/24 04:05:02;;;;;;;31.70;12.30;;;;;;;1.70;79.32;100768.58;1770666;81;21279;-77
2021/10/24 04:08:07;;;;;;;31.82;12.70;;;;;;;1.68;79.20;100783.98;1771191;79;21323;-77
2021/10/24 04:11:12;;;;;;;31.23;12.35;;;;;;;1.64;79.23;100785.66;1781848;80;21319;-76
2021/10/24 04:14:17;;;;;;;29.12;13.58;;;;;;;1.62;79.43;100781.73;1785762;80;21347;-77
2021/10/24 04:17:23;;;;;;;43.78;12.88;;;;;;;1.64;79.76;100773.52;1784266;79;21311;-79
2021/10/24 04:20:29;;;;;;;24.07;11.95;;;;;;;1.67;79.89;100778.22;1785745;80;21181;-76
2021/10/24 04:23:33;;;;;;;36.53;12.75;;;;;;;1.71;80.02;100778.39;1785882;79;21196;-79
2021/10/24 04:26:39;;;;;;;25.02;12.50;;;;;;;1.77;80.06;100784.69;1785880;79;21695;-79
2021/10/24 04:29:44;;;;;;;31.62;12.45;;;;;;;1.82;80.01;100795.16;1785261;80;21844;-79
2021/10/24 04:32:49;;;;;;;25.65;10.70;;;;;;;1.86;80.00;100798.50;1785163;79;21187;-76
2021/10/24 04:35:55;;;;;;;28.47;11.75;;;;;;;1.91;79.87;100797.20;1785752;80;21311;-79
2021/10/24 04:39:01;;;;;;;29.23;13.30;;;;;;;1.96;79.80;100799.57;1784344;80;21850;-79
2021/10/24 04:42:01;;;;;;;30.92;12.43;;;;;;;2.00;79.69;100806.48;1784035;79;21223;-79
2021/10/24 04:45:06;;;;;;;25.45;10.78;;;;;;;2.05;79.60;100807.88;1785734;80;21157;-79
2021/10/24 04:48:11;;;;;;;32.10;11.57;;;;;;;2.14;79.51;100809.54;1784942;79;22188;-79
2021/10/24 04:51:17;;;;;;;31.02;12.30;;;;;;;2.24;79.31;100809.25;1785569;80;21169;-79
2021/10/24 04:54:24;;;;;;;30.40;10.80;;;;;;;2.34;79.05;100810.30;1785738;80;21749;-79
2021/10/24 04:57:30;;;;;;;27.77;11.48;;;;;;;2.44;78.77;100816.75;1785407;79;21833;-79
2021/10/24 05:00:37;;;;;;;29.23;11.05;;;;;;;2.54;78.52;100816.94;1784172;79;21768;-77
2021/10/24 05:03:43;;;;;;;26.27;11.43;;;;;;;2.65;78.35;100827.84;1784515;79;21168;-79
2021/10/24 05:06:49;;;;;;;32.42;11.28;;;;;;;2.71;78.07;100828.73;1785692;79;21283;-77
2021/10/24 05:09:49;;;;;;;24.10;10.68;;;;;;;2.80;77.95;100828.05;1785235;80;21837;-78
2021/10/24 05:12:47;;;;;;;30.88;10.68;;;;;;;2.90;77.88;100834.98;1771028;79;21315;-79
2021/10/24 05:15:52;;;;;;;29.32;10.75;;;;;;;2.99;77.81;100834.78;1772113;81;21158;-79
2021/10/24 05:18:58;;;;;;;23.22;10.50;;;;;;;3.11;77.83;100837.06;1770549;79;21363;-79
2021/10/24 05:22:03;;;;;;;28.92;12.50;;;;;;;3.26;77.87;100846.72;1771944;79;21313;-78
2021/10/24 05:25:09;;;;;;;25.02;10.25;;;;;;;3.42;78.04;100850.45;1771965;81;21308;-76
2021/10/24 05:28:16;;;;;;;34.03;10.00;;;;;;;3.57;77.71;100854.67;1770699;79;21189;-77
2021/10/24 05:31:21;;;;;;;25.55;10.23;;;;;;;3.72;77.22;100852.16;1772246;81;21276;-75
2021/10/24 05:34:27;;;;;;;27.10;11.35;;;;;;;3.87;76.63;100852.81;1772264;81;21150;-76
2021/10/24 05:37:34;;;;;;;25.68;11.12;;;;;;;3.99;76.26;100853.17;1772252;79;21256;-76
2021/10/24 05:40:39;;;;;;;27.95;12.18;;;;;;;4.12;76.10;100861.70;1771909;81;21272;-79
2021/10/24 05:43:46;;;;;;;29.37;11.45;;;;;;;4.27;75.82;100865.89;1772332;79;21296;-79
2021/10/24 05:46:53;;;;;;;32.58;11.30;;;;;;;4.44;75.17;100867.26;1772244;79;21267;-79
2021/10/24 05:49:58;;;;;;;24.72;10.05;;;;;;;4.62;74.41;100873.91;1772083;81;21288;-75
2021/10/24 05:53:03;;;;;;;19.57;9.98;;;;;;;4.84;73.70;100880.63;1772343;79;21317;-76
2021/10/24 05:56:08;;;;;;;21.17;10.25;;;;;;;5.07;73.49;100877.87;1772153;81;21626;-79
2021/10/24 05:59:14;;;;;;;16.48;9.40;;;;;;;5.29;72.62;100882.39;1772251;81;21194;-77
2021/10/24 06:02:25;;;;;;;22.48;9.98;;;;;;;5.49;71.15;100888.34;1772389;79;21323;-76
2021/10/24 06:05:48;;;;;;;23.20;9.70;;;;;;;5.64;70.21;100897.03;1772313;81;21793;-77
2021/10/24 06:08:54;;;;;;;21.85;9.83;;;;;;;5.75;69.14;100898.36;1772329;79;21311;-79
2021/10/24 06:12:00;;;;;;;25.23;10.23;;;;;;;5.79;67.87;100897.11;1771824;79;21774;-80
2021/10/24 06:15:09;;;;;;;27.77;10.60;;;;;;;5.78;67.38;100892.64;1772369;81;21221;-76
2021/10/24 06:18:14;;;;;;;30.40;11.28;;;;;;;5.75;66.93;100905.14;1772183;79;21184;-79
2021/10/24 06:21:19;;;;;;;24.60;9.63;;;;;;;5.68;66.79;100902.57;1772278;81;21351;-79
2021/10/24 06:24:25;;;;;;;27.50;9.80;;;;;;;5.57;66.72;100901.27;1772252;81;21276;-76
2021/10/24 06:27:30;;;;;;;22.73;8.95;;;;;;;5.48;67.19;100897.48;1772208;79;21308;-78
2021/10/24 06:30:35;;;;;;;20.27;9.38;;;;;;;5.44;67.41;100900.58;1772159;81;21303;-79
2021/10/24 06:33:40;;;;;;;20.08;8.83;;;;;;;5.41;67.46;100900.36;1772232;79;21318;-79
2021/10/24 06:37:03;;;;;;;57.05;11.57;;;;;;;5.37;67.29;100907.89;1772137;79;21295;-76
2021/10/24 06:40:07;;;;;;;31.80;10.48;;;;;;;5.32;67.30;100914.20;1772238;81;21691;-79
2021/10/24 06:43:15;;;;;;;27.80;9.55;;;;;;;5.28;67.40;100919.50;1772028;79;21209;-79
2021/10/24 06:46:39;;;;;;;19.57;9.48;;;;;;;5.26;67.85;100930.95;1772112;79;21284;-79
2021/10/24 06:50:01;;;;;;;33.13;11.43;;;;;;;5.27;67.84;100925.92;1770724;81;21267;-79
2021/10/24 06:53:22;;;;;;;28.95;10.25;;;;;;;5.31;67.84;100918.37;1771125;79;21869;-79
2021/10/24 06:56:47;;;;;;;30.17;10.13;;;;;;;5.37;67.56;100929.59;1738056;82;21343;-77
2021/10/24 07:00:01;;;;;;;30.70;9.03;;;;;;;5.43;67.40;100924.64;1690210;82;21232;-77
2021/10/24 07:03:23;;;;;;;25.65;9.05;;;;;;;5.52;67.43;100917.09;1719563;82;21782;-76
2021/10/24 07:06:48;;;;;;;26.93;10.08;;;;;;;5.61;66.83;100919.03;1772021;79;21256;-79
2021/10/24 07:09:58;;;;;;;21.90;9.90;;;;;;;5.71;66.69;100906.39;1769909;81;21296;-77
2021/10/24 07:13:04;;;;;;;28.00;9.10;;;;;;;5.80;67.33;100913.75;1771170;79;21779;-79
2021/10/24 07:16:11;;;;;;;24.55;9.43;;;;;;;5.97;67.77;100916.89;1772038;81;21818;-77
2021/10/24 07:19:17;;;;;;;20.95;9.25;;;;;;;6.15;67.80;100914.81;1772084;81;21324;-79
2021/10/24 07:22:22;;;;;;;16.07;8.15;;;;;;;6.38;67.19;100917.38;1770838;79;21861;-79
2021/10/24 07:25:29;;;;;;;26.95;9.48;;;;;;;6.56;66.81;100913.55;1769990;81;21170;-77
2021/10/24 07:28:36;;;;;;;25.37;10.18;;;;;;;6.77;66.91;100921.64;1772289;79;21196;-76
2021/10/24 07:31:42;;;;;;;26.30;10.20;;;;;;;6.95;66.24;100925.94;1760977;79;21281;-76
2021/10/24 07:34:53;;;;;;;17.25;8.53;;;;;;;7.09;65.67;100925.05;1765482;81;21264;-77
2021/10/24 07:37:58;;;;;;;20.92;10.40;;;;;;;7.17;65.00;100928.44;1772093;79;21882;-76
2021/10/24 07:41:04;;;;;;;45.08;10.53;;;;;;;7.22;64.68;100928.02;1772238;81;21161;-76
2021/10/24 07:44:12;;;;;;;23.02;8.63;;;;;;;7.24;63.76;100921.42;1772111;81;21336;-76
2021/10/24 07:47:19;;;;;;;23.85;9.30;;;;;;;7.25;63.92;100917.73;1772151;79;21161;-79
2021/10/24 07:50:28;;;;;;;33.78;10.58;;;;;;;7.23;64.03;100914.77;1772365;81;21803;-77
2021/10/24 07:53:36;;;;;;;23.62;10.25;;;;;;;7.19;64.42;100919.63;1772251;79;21303;-76
2021/10/24 07:56:43;;;;;;;19.27;9.18;;;;;;;7.19;64.79;100929.15;1772001;79;21260;-79
2021/10/24 07:59:49;;;;;;;20.50;8.40;;;;;;;7.22;65.24;100926.16;1772094;81;21193;-76
2021/10/24 08:02:56;;;;;;;22.58;10.75;;;;;;;7.25;65.15;100925.89;1771538;79;21189;-77
2021/10/24 08:06:03;;;;;;;22.30;9.23;;;;;;;7.22;65.18;100930.24;1772119;81;21264;-77
2021/10/24 08:09:16;;;;;;;20.37;9.00;;;;;;;7.21;65.35;100929.89;1772206;81;21303;-79
2021/10/24 08:12:23;;;;;;;17.87;8.78;;;;;;;7.23;65.43;100927.02;1770503;79;21169;-76
2021/10/24 08:15:27;;;;;;;24.18;9.40;;;;;;;7.22;65.41;100925.30;1770768;80;21850;-76
2021/10/24 08:18:33;;;;;;;19.45;8.95;;;;;;;7.21;65.18;100922.23;1770896;79;21312;-77
2021/10/24 08:21:49;;;;;;;21.70;9.35;;;;;;;7.22;65.34;100919.86;1771882;79;21303;-77
2021/10/24 08:24:56;;;;;;;27.50;9.48;;;;;;;7.23;65.54;100925.66;1772056;81;21260;-79
2021/10/24 08:27:59;;;;;;;18.40;8.60;;;;;;;7.28;65.65;100930.17;1771566;79;21273;-78
2021/10/24 08:31:25;;;;;;;21.55;8.65;;;;;;;7.35;65.82;100925.91;1772322;81;21755;-78
2021/10/24 08:34:31;;;;;;;15.10;8.13;;;;;;;7.42;65.03;100923.82;1772020;81;21134;-77
2021/10/24 08:37:37;;;;;;;21.97;7.92;;;;;;;7.54;64.77;100918.27;1771581;79;21778;-79
2021/10/24 08:40:45;;;;;;;16.40;8.03;;;;;;;7.63;64.35;100920.14;1770665;81;21240;-77
2021/10/24 08:43:52;;;;;;;20.35;8.10;;;;;;;7.71;63.92;100919.41;1770992;79;21285;-79
2021/10/24 08:46:58;;;;;;;15.03;7.17;;;;;;;7.78;63.28;100902.36;1771962;79;21287;-76
2021/10/24 08:50:04;;;;;;;19.85;7.03;;;;;;;7.85;62.81;100910.30;1772072;81;21299;-76
2021/10/24 08:53:09;;;;;;;22.17;6.70;;;;;;;7.93;61.50;100903.64;1771120;79;21185;-76
2021/10/24 08:56:23;;;;;;;12.23;4.70;;;;;;;8.05;59.11;100889.88;1771893;81;21771;-76
2021/10/24 08:59:28;;;;;;;10.90;4.83;;;;;;;8.20;56.28;100892.49;1771154;81;21287;-80
2021/10/24 09:02:40;;;;;;;12.30;4.00;;;;;;;8.34;54.18;100898.84;1771464;79;21838;-76
2021/10/24 09:05:53;;;;;;;9.15;4.53;;;;;;;8.44;54.70;100892.88;1767528;80;21216;-77
2021/10/24 09:08:57;;;;;;;15.43;4.78;;;;;;;8.52;53.57;100889.94;1770702;79;21295;-79
2021/10/24 09:12:20;;;;;;;17.10;5.30;;;;;;;8.61;53.77;100884.91;1770640;79;21295;-79
2021/10/24 09:15:28;;;;;;;12.75;5.53;;;;;;;8.70;54.02;100882.66;1775973;80;21215;-79
2021/10/24 09:18:43;;;;;;;15.20;5.47;;;;;;;8.77;52.41;100889.23;1784603;79;21322;-77
2021/10/24 09:21:49;;;;;;;17.90;4.65;;;;;;;8.84;51.83;100884.03;1785745;79;21264;-79
2021/10/24 09:25:25;;;;;;;9.40;4.72;;;;;;;8.94;51.88;100876.67;1785402;80;21185;-76
2021/10/24 09:28:32;;;;;;;13.60;4.75;;;;;;;9.01;52.14;100871.45;1784498;79;21212;-78
2021/10/24 09:31:39;;;;;;;10.50;4.30;;;;;;;9.08;50.25;100872.55;1785851;79;21260;-79
2021/10/24 09:34:46;;;;;;;9.43;4.12;;;;;;;9.20;49.41;100876.80;1785922;80;21801;-79
2021/10/24 09:38:11;;;;;;;8.85;3.10;;;;;;;9.29;48.61;100869.05;1784814;79;21330;-76
2021/10/24 09:41:18;;;;;;;;;;;;;;;9.42;46.64;100865.44;1788433;80;21264;-79
2021/10/24 09:44:29;;;;;;;12.53;5.17;;;;;;;9.55;47.12;100857.34;1785483;80;20276;-76
2021/10/24 09:47:34;;;;;;;10.00;4.90;;;;;;;9.66;47.29;100858.48;1785856;79;21314;-79
2021/10/24 09:50:55;;;;;;;11.83;5.40;;;;;;;9.78;47.20;100857.21;1785887;80;21204;-79
2021/10/24 09:53:59;;;;;;;14.30;5.25;;;;;;;9.90;47.70;100849.12;1785689;79;21334;-79
2021/10/24 09:57:04;;;;;;;12.15;4.75;;;;;;;10.02;46.79;100852.95;1785713;79;21865;-79
2021/10/24 10:00:10;;;;;;;9.20;3.12;;;;;;;10.05;47.05;100857.60;1785046;80;21323;-75
2021/10/24 10:03:16;;;;;;;9.23;3.90;;;;;;;10.05;46.27;100845.30;1785383;79;21283;-78
2021/10/24 10:06:23;;;;;;;9.28;3.00;;;;;;;10.04;46.35;100842.23;1786004;80;21196;-79
2021/10/24 10:09:28;;;;;;;9.20;3.33;;;;;;;10.04;45.24;100854.52;1785909;80;21192;-78
2021/10/24 10:12:35;;;;;;;7.05;3.35;;;;;;;10.03;44.82;100850.59;1784383;79;21237;-79
2021/10/24 10:15:45;;;;;;;6.05;3.20;;;;;;;10.05;44.69;100854.02;1785949;80;21227;-79
2021/10/24 10:19:11;;;;;;;9.98;3.30;;;;;;;10.08;44.13;100839.53;1785988;79;21292;-76
2021/10/24 10:22:38;;;;;;;12.47;4.00;;;;;;;10.14;43.89;100838.88;1785436;79;21283;-76
2021/10/24 10:25:46;;;;;;;12.45;3.60;;;;;;;10.24;44.38;100839.66;1784486;80;21196;-79
2021/10/24 10:28:55;;;;;;;6.92;3.40;;;;;;;10.33;44.58;100840.56;1785833;79;21184;-78
2021/10/24 10:32:23;;;;;;;7.35;3.33;;;;;;;10.36;44.34;100842.98;1784385;79;21880;-79
2021/10/24 10:35:29;;;;;;;8.58;3.00;;;;;;;10.40;43.25;100836.69;1786068;80;21288;-77
2021/10/24 10:38:42;;;;;;;6.95;3.30;;;;;;;10.43;40.81;100840.45;1785974;79;21220;-79
2021/10/24 10:41:47;;;;;;;7.25;3.02;;;;;;;10.38;42.10;100836.83;1785821;79;21268;-76
2021/10/24 10:45:27;;;;;;;10.50;3.45;;;;;;;10.34;42.64;100835.44;1786001;80;21192;-76
2021/10/24 10:48:51;;;;;;;7.40;4.25;;;;;;;10.32;43.02;100832.02;1769588;79;21200;-79
2021/10/24 10:51:57;;;;;;;10.53;3.62;;;;;;;10.30;44.06;100836.77;1769901;79;21176;-76
2021/10/24 10:55:04;;;;;;;15.25;4.17;;;;;;;10.27;44.48;100823.96;1785593;80;21773;-79
2021/10/24 10:58:51;;;;;;;10.60;2.98;;;;;;;10.27;44.49;100827.55;1784961;79;21223;-76
2021/10/24 11:01:56;;;;;;;6.25;2.87;;;;;;;10.30;43.27;100835.92;1784554;79;21948;-79
2021/10/24 11:05:07;;;;;;;11.45;2.87;;;;;;;10.29;42.80;100828.23;1784995;80;21161;-76
2021/10/24 11:08:13;;;;;;;10.70;3.17;;;;;;;10.29;42.36;100829.59;1785190;79;21184;-79
2021/10/24 11:11:17;;;;;;;10.75;3.30;;;;;;;10.31;42.74;100828.09;1785789;80;21375;-79
2021/10/24 11:14:27;;;;;;;11.05;4.10;;;;;;;10.33;43.28;100826.04;1785418;80;21315;-79
2021/10/24 11:17:46;;;;;;;10.50;3.25;;;;;;;10.33;43.00;100834.24;1783907;80;21335;-76
2021/10/24 11:20:51;;;;;;;17.57;4.28;;;;;;;10.30;43.17;100829.94;1785823;80;21188;-76
2021/10/24 11:23:56;;;;;;;12.33;4.08;;;;;;;10.28;43.61;100829.25;1785908;79;21165;-78
2021/10/24 11:27:07;;;;;;;9.95;3.67;;;;;;;10.26;44.34;100832.67;1792433;79;21287;-79
2021/10/24 11:30:17;;;;;;;10.40;4.40;;;;;;;10.19;43.96;100838.39;1785995;80;21577;-79
2021/10/24 11:33:23;;;;;;;9.60;3.85;;;;;;;10.15;44.94;100839.22;1785836;79;21291;-79
2021/10/24 11:36:35;;;;;;;8.63;3.72;;;;;;;10.11;44.62;100836.96;1785701;80;21199;-79
2021/10/24 11:39:40;;;;;;;9.45;4.17;;;;;;;10.08;44.01;100835.94;1786099;80;21264;-79
2021/10/24 11:42:45;;;;;;;26.12;4.80;;;;;;;10.05;42.34;100839.83;1785969;79;21280;-76
2021/10/24 11:45:55;;;;;;;8.43;3.77;;;;;;;10.05;43.22;100840.34;1785853;80;21201;-78
2021/10/24 11:49:04;;;;;;;11.63;3.70;;;;;;;10.07;41.92;100836.93;1786187;79;21224;-76
2021/10/24 11:52:08;;;;;;;10.75;3.77;;;;;;;10.10;41.51;100840.72;1785856;79;21192;-76
2021/10/24 11:55:14;;;;;;;12.65;5.12;;;;;;;10.13;41.81;100841.78;1785902;80;21354;-76
2021/10/24 11:58:44;;;;;;;8.03;3.55;;;;;;;10.16;42.63;100838.70;1785865;79;21194;-79
2021/10/24 12:01:32;;;;;;;7.60;3.33;;;;;;;10.19;42.06;100848.81;1785474;80;21315;-76
2021/10/24 12:04:37;;;;;;;7.78;3.47;;;;;;;10.20;40.79;100848.30;1785995;80;21137;-78
2021/10/24 12:07:43;;;;;;;11.57;3.92;;;;;;;10.17;41.04;100857.70;1785846;79;21192;-76
2021/10/24 12:10:56;;;;;;;19.40;5.35;;;;;;;10.12;41.83;100855.96;1786035;80;21852;-79
2021/10/24 12:14:02;;;;;;;16.02;5.37;;;;;;;10.09;44.52;100862.25;1785922;80;21209;-76
2021/10/24 12:17:08;;;;;;;10.45;4.90;;;;;;;10.04;45.31;100862.72;1753862;79;21340;-77
2021/10/24 12:20:28;;;;;;;14.35;5.80;;;;;;;10.01;44.65;100863.55;1772325;81;21165;-78
2021/10/24 12:23:38;;;;;;;15.00;6.57;;;;;;;9.96;46.09;100870.85;1772504;79;21892;-78
2021/10/24 12:26:43;;;;;;;24.90;7.05;;;;;;;9.91;47.75;100866.38;1772481;79;21289;-79
2021/10/24 12:29:50;;;;;;;18.85;6.70;;;;;;;9.84;48.79;100883.92;1772107;81;21260;-79
2021/10/24 12:33:12;;;;;;;13.28;5.78;;;;;;;9.78;48.65;100885.04;1771970;79;21276;-79
2021/10/24 12:36:19;;;;;;;18.87;7.62;;;;;;;9.74;48.30;100879.05;1772153;81;21292;-78
2021/10/24 12:39:32;;;;;;;16.95;7.87;;;;;;;9.72;47.93;100881.06;1772156;81;21269;-78
2021/10/24 12:42:37;;;;;;;20.20;9.90;;;;;;;9.73;47.66;100890.97;1772127;79;21848;-76
2021/10/24 12:46:05;;;;;;;22.45;8.60;;;;;;;9.74;47.77;100885.89;1772233;81;21256;-78
2021/10/24 12:49:30;;;;;;;15.10;6.33;;;;;;;9.73;47.76;100892.34;1772248;81;21154;-76
2021/10/24 12:52:34;;;;;;;24.32;6.50;;;;;;;9.72;48.38;100887.90;1782310;79;21226;-76
2021/10/24 12:55:40;;;;;;;15.25;7.05;;;;;;;9.67;48.90;100899.30;1787306;80;21793;-78
2021/10/24 12:58:45;;;;;;;26.87;9.15;;;;;;;9.63;49.94;100909.32;1786139;79;21318;-78
2021/10/24 13:01:57;;;;;;;16.87;9.23;;;;;;;9.56;50.64;100912.34;1787295;79;21271;-76
2021/10/24 13:05:03;;;;;;;35.38;11.80;;;;;;;9.48;51.48;100913.95;1787441;80;21187;-76
2021/10/24 13:08:08;;;;;;;19.15;10.25;;;;;;;9.44;51.77;100923.47;1787519;79;21304;-77
2021/10/24 13:11:14;;;;;;;23.52;8.68;;;;;;;9.41;52.01;100922.42;1786024;80;21155;-79
2021/10/24 13:14:21;;;;;;;17.27;8.03;;;;;;;9.38;51.46;100916.41;1787549;80;21262;-76
2021/10/24 13:17:26;;;;;;;28.23;11.97;;;;;;;9.34;52.19;100919.95;1787099;79;21319;-79
2021/10/24 13:20:33;;;;;;;20.55;9.68;;;;;;;9.32;52.81;100930.17;1787269;80;21314;-79
2021/10/24 13:23:39;;;;;;;19.45;9.35;;;;;;;9.31;53.24;100931.16;1785958;79;21322;-76
2021/10/24 13:26:49;;;;;;;26.57;10.10;;;;;;;9.29;53.55;100932.34;1786712;80;21832;-76
2021/10/24 13:29:54;;;;;;;17.80;8.80;;;;;;;9.28;54.25;100939.68;1787593;80;21860;-78
2021/10/24 13:32:59;;;;;;;17.95;8.85;;;;;;;9.24;55.19;100930.07;1786609;80;21183;-75
2021/10/24 13:36:05;;;;;;;24.60;10.45;;;;;;;9.22;55.29;100945.72;1787064;80;21211;-76
2021/10/24 13:39:12;;;;;;;30.08;10.45;;;;;;;9.18;55.61;100942.47;1786987;80;21163;-77
2021/10/24 13:42:19;;;;;;;25.57;9.50;;;;;;;9.13;55.66;100940.70;1786843;80;21844;-79
2021/10/24 13:45:26;;;;;;;22.45;10.68;;;;;;;9.09;55.89;100959.75;1787343;80;21188;-78
2021/10/24 13:48:30;;;;;;;17.62;9.35;;;;;;;9.06;56.10;100953.72;1787634;80;21286;-79
2021/10/24 13:51:36;;;;;;;25.08;9.15;;;;;;;9.02;56.51;100959.13;1787923;79;21896;-76
2021/10/24 13:54:44;;;;;;;18.65;9.33;;;;;;;8.99;56.91;100966.23;1781861;80;21262;-79
2021/10/24 13:57:50;;;;;;;23.52;10.60;;;;;;;8.94;56.97;100963.48;1781140;80;21286;-76
2021/10/24 14:00:56;;;;;;;29.00;10.30;;;;;;;8.90;57.10;100971.61;1781675;80;21477;-76
2021/10/24 14:04:06;;;;;;;20.40;11.40;;;;;;;8.88;57.24;100977.70;1780238;80;21167;-76
2021/10/24 14:07:10;;;;;;;25.30;12.68;;;;;;;8.84;57.58;100979.50;1781454;80;21208;-76
2021/10/24 14:10:17;;;;;;;32.28;13.13;;;;;;;8.81;58.47;100971.64;1781863;80;21144;-79
2021/10/24 14:13:23;;;;;;;28.98;13.68;;;;;;;8.74;59.72;100986.87;1780301;79;21195;-76
2021/10/24 14:16:29;;;;;;;25.77;12.28;;;;;;;8.68;60.35;100985.59;1781820;80;21279;-76
2021/10/24 14:19:34;;;;;;;21.10;10.95;;;;;;;8.63;61.02;100992.00;1781832;80;21159;-76
2021/10/24 14:22:40;;;;;;;25.10;10.38;;;;;;;8.56;61.31;100986.28;1781669;80;21282;-76
2021/10/24 14:25:45;;;;;;;18.60;9.50;;;;;;;8.50;61.25;100995.53;1781791;80;21817;-79
2021/10/24 14:28:52;;;;;;;20.43;9.98;;;;;;;8.46;61.03;101001.78;1780556;80;21305;-76